Brora, United Kingdom
Current Conditions -  °F | °C
As of 5:50 PM on Tuesday 27 Jan 2015 (Local Time) from EGQK Reporting Station
Broken Clouds Broken Clouds  
Wind Chill: 39°   Ceiling: 18000
Heat Index: 46°   Visibility: 6mi
Dew Point: 39°   Wind: 17mph
Humidity: 76%   Direction: 220°SW
Pressure: 29.8"   Gusts: NA
Location:  58.01°N, 3.85°W
Report Text: EGQK 271750Z 22015KT 9999 FEW030 BKN180 08/04 Q1009 BLU
Loading
Personal Weather Stations






























Interactive Weather Map New forecast layout! Learn more

10-Day Weather Forecast

Advertisements
Track Severe Weather on mobile